createdAt,value
2024-05-09T00:00:22.315Z,15.8913
2024-05-09T00:01:18.970Z,15.8761
2024-05-09T00:02:21.490Z,15.8556
2024-05-09T00:03:24.061Z,15.8584
2024-05-09T00:04:26.635Z,15.8890
2024-05-09T00:05:29.365Z,15.8609
2024-05-09T00:06:31.867Z,15.8447
2024-05-09T00:07:34.368Z,15.8523
2024-05-09T00:08:37.219Z,15.8730
2024-05-09T00:09:39.522Z,15.8632
2024-05-09T00:10:42.206Z,15.8710
2024-05-09T00:11:44.733Z,15.8695
2024-05-09T00:12:47.317Z,15.8500
2024-05-09T00:13:49.872Z,15.8574
2024-05-09T00:14:52.634Z,15.8718
2024-05-09T00:15:55.010Z,15.8523
2024-05-09T00:16:57.649Z,15.8436
2024-05-09T00:18:00.402Z,15.8529
2024-05-09T00:19:02.857Z,15.8447
2024-05-09T00:20:14.245Z,15.8619
2024-05-09T00:21:07.978Z,15.8512
2024-05-09T00:22:10.522Z,15.8404
2024-05-09T00:23:13.723Z,15.8363
2024-05-09T00:24:15.685Z,15.8586
2024-05-09T00:25:18.296Z,15.8490
2024-05-09T00:26:20.911Z,15.8782
2024-05-09T00:27:23.466Z,15.8718
2024-05-09T00:28:26.048Z,15.8523
2024-05-09T00:29:28.710Z,15.8321
2024-05-09T00:30:34.979Z,15.8490
2024-05-09T00:31:33.767Z,15.8459
2024-05-09T00:32:36.605Z,15.8344
2024-05-09T00:33:39.139Z,15.8652
2024-05-09T00:34:41.512Z,15.8632
2024-05-09T00:35:44.101Z,15.8664
2024-05-09T00:36:46.679Z,15.8695
2024-05-09T00:37:49.254Z,15.8650
2024-05-09T00:38:51.815Z,15.8404
2024-05-09T00:39:54.415Z,15.8436
2024-05-09T00:40:57.038Z,15.8490
2024-05-09T00:41:59.583Z,15.8426
2024-05-09T00:43:02.148Z,15.8365
2024-05-09T00:44:04.769Z,15.8377
2024-05-09T00:45:07.306Z,15.8802
2024-05-09T00:46:09.923Z,15.8644
2024-05-09T00:47:12.555Z,15.8535
2024-05-09T00:48:17.721Z,15.8568
2024-05-09T00:49:17.794Z,15.8480
2024-05-09T00:50:29.354Z,15.8451
2024-05-09T00:51:22.866Z,15.8597
2024-05-09T00:52:25.406Z,15.8531
2024-05-09T00:53:28.055Z,15.8535
2024-05-09T00:54:30.551Z,15.8436
2024-05-09T00:55:33.171Z,15.8363
2024-05-09T00:56:35.807Z,15.8332
2024-05-09T00:57:38.300Z,15.8619
2024-05-09T00:58:40.894Z,15.8543
2024-05-09T00:59:43.466Z,15.8543
2024-05-09T01:00:46.162Z,15.8512
2024-05-09T01:01:48.774Z,15.8706
2024-05-09T01:02:51.304Z,15.8566
2024-05-09T01:03:54.054Z,15.8660
2024-05-09T01:04:56.463Z,15.8543
2024-05-09T01:05:59.074Z,15.8482
2024-05-09T01:07:01.600Z,15.8451
2024-05-09T01:08:04.212Z,15.8588
2024-05-09T01:09:06.748Z,15.8796
2024-05-09T01:10:14.039Z,15.8597
2024-05-09T01:11:11.966Z,15.8829
2024-05-09T01:12:14.680Z,15.8451
2024-05-09T01:13:17.127Z,15.8447
2024-05-09T01:14:19.690Z,15.8527
2024-05-09T01:15:22.207Z,15.8662
2024-05-09T01:16:24.799Z,15.9083
2024-05-09T01:17:27.512Z,15.8404
2024-05-09T01:18:30.089Z,15.8640
2024-05-09T01:19:32.833Z,15.8728
2024-05-09T01:20:41.514Z,15.8471
2024-05-09T01:21:37.717Z,15.8703
2024-05-09T01:22:40.300Z,15.8966
2024-05-09T01:23:42.977Z,15.8673
2024-05-09T01:24:45.452Z,15.8469
2024-05-09T01:25:48.090Z,15.8383
2024-05-09T01:26:50.621Z,15.8525
2024-05-09T01:27:53.207Z,15.8365
2024-05-09T01:28:55.830Z,15.8387
2024-05-09T01:29:58.368Z,15.8297
2024-05-09T01:31:01.007Z,15.8424
2024-05-09T01:32:03.637Z,15.8307
2024-05-09T01:33:07.967Z,15.8728
2024-05-09T01:34:08.806Z,15.8588
2024-05-09T01:35:11.391Z,15.8533
2024-05-09T01:36:13.946Z,15.8147
2024-05-09T01:37:16.559Z,15.8087
2024-05-09T01:38:19.136Z,15.8568
2024-05-09T01:39:21.705Z,15.8213
2024-05-09T01:40:33.489Z,15.8551
2024-05-09T01:41:26.946Z,15.8358
2024-05-09T01:42:29.453Z,15.8623
2024-05-09T01:43:32.051Z,15.8385
2024-05-09T01:44:34.692Z,15.8190
2024-05-09T01:45:37.207Z,15.8412
2024-05-09T01:46:39.821Z,15.8360
2024-05-09T01:47:42.693Z,15.8354
2024-05-09T01:48:45.028Z,15.8365
2024-05-09T01:49:47.637Z,15.8424
2024-05-09T01:50:50.156Z,15.8484
2024-05-09T01:51:52.716Z,15.8447
2024-05-09T01:52:55.338Z,15.8365
2024-05-09T01:53:57.905Z,15.8773
2024-05-09T01:55:03.524Z,15.8814
2024-05-09T01:56:03.166Z,15.8262
2024-05-09T01:57:05.704Z,15.8525
2024-05-09T01:58:08.210Z,15.8568
2024-05-09T01:59:10.857Z,15.8001
2024-05-09T02:00:18.798Z,15.8268
2024-05-09T02:01:16.027Z,15.8287
2024-05-09T02:02:18.701Z,15.8804
2024-05-09T02:03:21.472Z,15.8360
2024-05-09T02:04:23.941Z,15.8441
2024-05-09T02:05:26.353Z,15.8619
2024-05-09T02:06:28.908Z,15.8262
2024-05-09T02:07:31.497Z,15.8404
2024-05-09T02:08:34.222Z,15.8180
2024-05-09T02:09:36.694Z,15.8124
2024-05-09T02:10:39.270Z,15.8145
2024-05-09T02:11:41.951Z,15.8165
2024-05-09T02:12:44.423Z,15.8488
2024-05-09T02:13:47.017Z,15.8533
2024-05-09T02:14:49.714Z,15.8759
2024-05-09T02:15:52.262Z,15.8632
2024-05-09T02:16:54.831Z,15.8708
2024-05-09T02:17:57.479Z,15.8237
2024-05-09T02:19:00.013Z,15.8404
2024-05-09T02:20:02.765Z,15.8143
2024-05-09T02:21:05.256Z,15.8303
2024-05-09T02:22:07.681Z,15.8186
2024-05-09T02:23:10.368Z,15.8478
2024-05-09T02:24:12.861Z,15.8804
2024-05-09T02:25:15.557Z,15.8515
2024-05-09T02:26:18.132Z,15.8447
2024-05-09T02:27:20.631Z,15.8502
2024-05-09T02:28:23.301Z,15.8533
2024-05-09T02:29:25.916Z,15.8459
2024-05-09T02:30:36.373Z,15.8490
2024-05-09T02:31:30.958Z,15.8319
2024-05-09T02:32:33.696Z,15.8428
2024-05-09T02:33:36.479Z,15.8132
2024-05-09T02:34:38.848Z,15.8354
2024-05-09T02:35:41.455Z,15.8527
2024-05-09T02:36:43.873Z,15.8284
2024-05-09T02:37:46.664Z,15.8406
2024-05-09T02:38:49.043Z,15.8100
2024-05-09T02:39:51.625Z,15.8685
2024-05-09T02:40:54.234Z,15.8291
2024-05-09T02:41:56.793Z,15.8254
2024-05-09T02:42:59.438Z,15.8568
2024-05-09T02:44:02.021Z,15.8578
2024-05-09T02:45:04.536Z,15.8426
2024-05-09T02:46:07.161Z,15.8738
2024-05-09T02:47:09.843Z,15.8564
2024-05-09T02:48:13.379Z,15.8338
2024-05-09T02:49:14.925Z,15.8488
2024-05-09T02:50:25.998Z,15.8695
2024-05-09T02:51:20.104Z,15.8395
2024-05-09T02:52:22.620Z,15.8221
2024-05-09T02:53:25.270Z,15.8402
2024-05-09T02:54:27.819Z,15.8157
2024-05-09T02:55:30.382Z,15.8535
2024-05-09T02:56:33.027Z,15.8424
2024-05-09T02:57:35.534Z,15.8457
2024-05-09T02:58:38.164Z,15.8558
2024-05-09T02:59:40.720Z,15.8771
2024-05-09T03:00:43.434Z,15.8381
2024-05-09T03:01:46.064Z,15.8578
2024-05-09T03:02:48.619Z,15.8510
2024-05-09T03:03:51.180Z,15.8241
2024-05-09T03:04:53.764Z,15.8835
2024-05-09T03:05:56.387Z,15.8515
2024-05-09T03:06:58.843Z,15.8352
2024-05-09T03:08:01.532Z,15.8284
2024-05-09T03:09:04.000Z,15.8408
2024-05-09T03:10:12.218Z,15.8219
2024-05-09T03:11:09.248Z,15.8588
2024-05-09T03:12:12.015Z,15.8831
2024-05-09T03:13:15.606Z,15.8533
2024-05-09T03:14:17.013Z,15.8827
2024-05-09T03:15:19.478Z,15.8426
2024-05-09T03:16:22.047Z,15.8543
2024-05-09T03:17:24.921Z,15.8137
2024-05-09T03:18:27.380Z,15.8480
2024-05-09T03:19:29.886Z,15.8428
2024-05-09T03:20:34.757Z,15.8358
2024-05-09T03:21:34.994Z,15.8445
2024-05-09T03:22:37.555Z,15.8736
2024-05-09T03:23:40.232Z,15.8954
2024-05-09T03:24:42.728Z,15.8619
2024-05-09T03:25:45.394Z,15.8445
2024-05-09T03:26:47.902Z,15.8603
2024-05-09T03:27:50.484Z,15.8512
2024-05-09T03:28:53.136Z,15.8373
2024-05-09T03:29:55.657Z,15.8165
2024-05-09T03:30:58.234Z,15.8295
2024-05-09T03:32:00.954Z,15.8426
2024-05-09T03:33:03.625Z,15.8034
2024-05-09T03:34:06.183Z,15.8122
2024-05-09T03:35:08.625Z,15.8317
2024-05-09T03:36:11.537Z,15.8459
2024-05-09T03:37:13.784Z,15.8490
2024-05-09T03:38:16.572Z,15.8406
2024-05-09T03:39:18.927Z,15.8619
2024-05-09T03:40:26.358Z,15.8761
2024-05-09T03:41:24.159Z,15.8461
2024-05-09T03:42:26.685Z,15.8654
2024-05-09T03:43:29.253Z,15.8942
2024-05-09T03:44:31.928Z,15.8178
2024-05-09T03:45:34.452Z,15.8422
2024-05-09T03:46:37.034Z,15.8541
2024-05-09T03:47:39.782Z,15.8568
2024-05-09T03:48:42.308Z,15.8358
2024-05-09T03:49:44.862Z,15.8295
2024-05-09T03:50:47.474Z,15.8469
2024-05-09T03:51:49.939Z,15.8708
2024-05-09T03:52:52.655Z,15.8436
2024-05-09T03:53:55.177Z,15.8266
2024-05-09T03:54:57.736Z,15.8480
2024-05-09T03:56:00.394Z,15.8379
2024-05-09T03:57:02.877Z,15.8502
2024-05-09T03:58:05.455Z,15.8469
2024-05-09T03:59:08.089Z,15.8311
2024-05-09T04:00:17.824Z,15.8264
2024-05-09T04:01:13.252Z,15.8167
2024-05-09T04:02:15.864Z,15.8443
2024-05-09T04:03:18.758Z,15.8061
2024-05-09T04:04:21.090Z,15.7921
2024-05-09T04:05:23.562Z,15.8326
2024-05-09T04:06:26.176Z,15.8348
2024-05-09T04:07:28.773Z,15.8167
2024-05-09T04:08:31.367Z,15.8287
2024-05-09T04:09:33.903Z,15.8769
2024-05-09T04:10:36.472Z,15.8371
2024-05-09T04:11:39.156Z,15.8176
2024-05-09T04:12:41.666Z,15.8056
2024-05-09T04:13:44.261Z,15.8005
2024-05-09T04:14:46.823Z,15.8566
2024-05-09T04:15:49.406Z,15.8075
2024-05-09T04:16:52.076Z,15.8613
2024-05-09T04:17:54.922Z,15.8623
2024-05-09T04:18:57.270Z,15.8512
2024-05-09T04:19:59.787Z,15.8521
2024-05-09T04:21:02.501Z,15.8728
2024-05-09T04:22:04.912Z,15.8710
2024-05-09T04:23:08.603Z,15.8416
2024-05-09T04:24:10.066Z,15.8570
2024-05-09T04:25:12.683Z,15.8254
2024-05-09T04:26:15.266Z,15.8155
2024-05-09T04:27:17.871Z,15.8112
2024-05-09T04:28:20.400Z,15.8153
2024-05-09T04:29:23.041Z,15.8026
2024-05-09T04:30:34.035Z,15.8180
2024-05-09T04:31:28.166Z,15.8293
2024-05-09T04:32:30.954Z,15.7919
2024-05-09T04:33:33.575Z,15.8260
2024-05-09T04:34:36.031Z,15.8652
2024-05-09T04:35:38.913Z,15.8654
2024-05-09T04:36:43.861Z,15.8566
2024-05-09T04:37:43.762Z,15.8293
2024-05-09T04:38:46.310Z,15.8408
2024-05-09T04:39:48.843Z,15.8625
2024-05-09T04:40:51.529Z,15.8408
2024-05-09T04:41:54.018Z,15.8287
2024-05-09T04:42:56.610Z,15.8740
2024-05-09T04:43:59.206Z,15.8510
2024-05-09T04:45:01.764Z,15.8309
2024-05-09T04:46:04.345Z,15.8523
2024-05-09T04:47:06.984Z,15.8252
2024-05-09T04:48:09.806Z,15.8471
2024-05-09T04:49:12.214Z,15.8352
2024-05-09T04:50:20.987Z,15.8445
2024-05-09T04:51:17.323Z,15.8089
2024-05-09T04:52:19.889Z,15.7847
2024-05-09T04:53:22.512Z,15.8137
2024-05-09T04:54:33.809Z,15.8221
2024-05-09T04:55:27.677Z,15.8492
2024-05-09T04:56:30.234Z,15.8597
2024-05-09T04:57:32.785Z,15.8122
2024-05-09T04:58:35.371Z,15.8319
2024-05-09T04:59:38.018Z,15.8515
2024-05-09T05:00:41.326Z,15.8673
2024-05-09T05:01:43.118Z,15.8492
2024-05-09T05:02:45.784Z,15.8708
2024-05-09T05:03:48.420Z,15.8566
2024-05-09T05:04:51.021Z,15.8942
2024-05-09T05:05:53.512Z,15.8153
2024-05-09T05:06:57.779Z,15.8601
2024-05-09T05:07:58.695Z,15.8482
2024-05-09T05:09:01.245Z,15.8038
2024-05-09T05:10:05.749Z,15.7987
2024-05-09T05:11:06.447Z,15.7993
2024-05-09T05:12:09.165Z,15.8383
2024-05-09T05:13:11.577Z,15.8414
2024-05-09T05:14:14.180Z,15.8708
2024-05-09T05:15:16.732Z,15.8176
2024-05-09T05:16:19.322Z,15.8782
2024-05-09T05:17:22.010Z,15.8350
2024-05-09T05:18:24.650Z,15.8482
2024-05-09T05:19:27.299Z,15.7968
2024-05-09T05:20:33.593Z,15.8299
2024-05-09T05:21:32.334Z,15.8416
2024-05-09T05:22:34.870Z,15.8019
2024-05-09T05:23:37.505Z,15.7878
2024-05-09T05:24:39.991Z,15.8034
2024-05-09T05:25:42.585Z,15.8184
2024-05-09T05:26:45.193Z,15.8749
2024-05-09T05:27:47.743Z,15.8554
2024-05-09T05:28:50.377Z,15.8936
2024-05-09T05:29:52.941Z,15.8535
2024-05-09T05:30:55.522Z,15.8640
2024-05-09T05:31:58.210Z,15.8837
2024-05-09T05:33:01.001Z,15.8730
2024-05-09T05:34:03.355Z,15.8157
2024-05-09T05:35:05.913Z,15.7931
2024-05-09T05:36:08.466Z,15.8354
2024-05-09T05:37:11.008Z,15.8827
2024-05-09T05:38:13.657Z,15.8533
2024-05-09T05:39:16.249Z,15.8769
2024-05-09T05:40:28.014Z,15.8535
2024-05-09T05:41:21.432Z,15.9007
2024-05-09T05:42:24.004Z,15.8710
2024-05-09T05:43:26.591Z,15.8056
2024-05-09T05:44:29.306Z,15.8545
2024-05-09T05:45:31.757Z,15.8200
2024-05-09T05:46:34.359Z,15.8360
2024-05-09T05:47:37.043Z,15.8178
2024-05-09T05:48:39.795Z,15.8112
2024-05-09T05:49:42.139Z,15.8350
2024-05-09T05:50:44.779Z,15.8492
2024-05-09T05:51:47.314Z,15.8219
2024-05-09T05:52:49.882Z,15.8186
2024-05-09T05:53:52.459Z,15.8422
2024-05-09T05:54:55.048Z,15.8525
2024-05-09T05:55:57.682Z,15.8079
2024-05-09T05:57:00.216Z,15.8202
2024-05-09T05:58:02.875Z,15.7983
2024-05-09T05:59:05.417Z,15.7950
2024-05-09T06:00:09.782Z,15.8104
2024-05-09T06:01:10.562Z,15.8266
2024-05-09T06:02:13.230Z,15.8192
2024-05-09T06:03:15.838Z,15.8360
2024-05-09T06:04:18.455Z,15.8176
2024-05-09T06:05:20.898Z,15.8328
2024-05-09T06:06:23.469Z,15.8186
2024-05-09T06:07:26.031Z,15.8231
2024-05-09T06:08:30.532Z,15.8112
2024-05-09T06:09:31.276Z,15.8167
2024-05-09T06:10:38.868Z,15.7950
2024-05-09T06:11:36.434Z,15.8048
2024-05-09T06:12:38.969Z,15.8036
2024-05-09T06:13:41.537Z,15.8340
2024-05-09T06:14:44.123Z,15.8223
2024-05-09T06:15:46.720Z,15.8200
2024-05-09T06:16:49.337Z,15.8545
2024-05-09T06:17:51.999Z,15.8071
2024-05-09T06:18:54.688Z,15.8176
2024-05-09T06:19:57.074Z,15.8052
2024-05-09T06:20:59.679Z,15.8537
2024-05-09T06:22:02.218Z,15.8346
2024-05-09T06:23:05.062Z,15.8036
2024-05-09T06:24:07.384Z,15.8317
2024-05-09T06:25:09.983Z,15.8112
2024-05-09T06:26:12.583Z,15.8239
2024-05-09T06:27:15.146Z,15.8192
2024-05-09T06:28:17.710Z,15.8034
2024-05-09T06:29:20.341Z,15.8087
2024-05-09T06:30:30.277Z,15.8067
2024-05-09T06:31:25.476Z,15.8034
2024-05-09T06:32:28.237Z,15.8202
2024-05-09T06:33:30.853Z,15.8155
2024-05-09T06:34:33.387Z,15.8169
2024-05-09T06:35:36.114Z,15.8034
2024-05-09T06:36:38.514Z,15.8167
2024-05-09T06:37:40.968Z,15.8145
2024-05-09T06:38:43.566Z,15.8231
2024-05-09T06:39:46.136Z,15.8165
2024-05-09T06:40:48.783Z,15.8085
2024-05-09T06:41:51.317Z,15.8309
2024-05-09T06:42:53.881Z,15.8231
2024-05-09T06:43:56.513Z,15.8120
2024-05-09T06:44:59.072Z,15.8108
2024-05-09T06:46:01.663Z,15.8211
2024-05-09T06:47:04.324Z,15.8163
2024-05-09T06:48:07.080Z,15.8272
2024-05-09T06:49:09.560Z,15.8147
2024-05-09T06:50:20.217Z,15.8198
2024-05-09T06:51:14.729Z,15.8192
2024-05-09T06:52:17.157Z,15.8219
2024-05-09T06:53:19.755Z,15.8188
2024-05-09T06:54:22.331Z,15.8418
2024-05-09T06:55:24.891Z,15.8480
2024-05-09T06:56:27.518Z,15.8469
2024-05-09T06:57:30.075Z,15.8521
2024-05-09T06:58:32.649Z,15.8480
2024-05-09T06:59:35.380Z,15.8510
2024-05-09T07:00:40.340Z,15.8541
2024-05-09T07:01:40.483Z,15.8459
2024-05-09T07:02:43.116Z,15.8490
2024-05-09T07:03:45.733Z,15.8531
2024-05-09T07:04:48.244Z,15.8695
2024-05-09T07:05:50.757Z,15.8607
2024-05-09T07:06:53.370Z,15.8650
2024-05-09T07:07:55.916Z,15.8650
2024-05-09T07:08:58.527Z,15.8582
2024-05-09T07:10:01.086Z,15.8693
2024-05-09T07:11:03.809Z,15.8925
2024-05-09T07:12:06.373Z,15.8794
2024-05-09T07:13:08.823Z,15.8751
2024-05-09T07:14:11.495Z,15.8816
2024-05-09T07:15:13.984Z,15.8880
2024-05-09T07:16:16.625Z,15.8927
2024-05-09T07:17:19.269Z,15.8936
2024-05-09T07:18:21.941Z,15.8946
2024-05-09T07:19:24.576Z,15.8890
2024-05-09T07:20:34.085Z,15.8915
2024-05-09T07:21:29.485Z,15.8946
2024-05-09T07:22:32.064Z,15.8892
2024-05-09T07:23:34.815Z,15.8843
2024-05-09T07:24:37.240Z,15.9010
2024-05-09T07:25:39.832Z,15.8927
2024-05-09T07:26:42.463Z,15.8989
2024-05-09T07:27:44.972Z,15.9010
2024-05-09T07:28:47.618Z,15.9042
2024-05-09T07:29:50.134Z,15.9007
2024-05-09T07:30:52.729Z,15.9007
2024-05-09T07:31:55.343Z,15.9186
2024-05-09T07:32:58.115Z,15.9007
2024-05-09T07:34:00.705Z,15.9030
2024-05-09T07:35:03.182Z,15.9030
2024-05-09T07:36:05.657Z,15.8989
2024-05-09T07:37:08.262Z,15.9073
2024-05-09T07:38:10.862Z,15.9020
2024-05-09T07:39:13.367Z,15.9157
2024-05-09T07:40:24.882Z,15.9104
2024-05-09T07:41:18.594Z,15.9040
2024-05-09T07:42:21.126Z,15.9102
2024-05-09T07:43:23.743Z,15.9125
2024-05-09T07:44:26.285Z,15.9094
2024-05-09T07:45:45.219Z,15.9145
2024-05-09T07:47:37.114Z,15.9157
2024-05-09T07:50:34.437Z,15.9186
2024-05-09T07:53:14.438Z,15.9153
2024-05-09T07:53:34.619Z,15.9188
2024-05-09T07:53:52.382Z,15.9166
2024-05-09T07:54:52.293Z,15.9242
2024-05-09T07:55:55.248Z,15.9353
2024-05-09T07:56:57.564Z,15.9211
2024-05-09T07:57:59.914Z,15.9277
2024-05-09T07:59:02.457Z,15.9264
2024-05-09T08:00:06.655Z,15.9250
2024-05-09T08:01:07.715Z,15.9233
2024-05-09T08:02:10.374Z,15.9231
2024-05-09T08:03:12.859Z,15.9254
2024-05-09T08:04:15.469Z,15.9258
2024-05-09T08:05:18.102Z,15.9324
2024-05-09T08:06:20.538Z,15.9287
2024-05-09T08:07:23.192Z,15.9287
2024-05-09T08:08:25.722Z,15.9359
2024-05-09T08:09:28.339Z,15.9433
2024-05-09T08:10:30.960Z,15.9420
2024-05-09T08:11:33.504Z,15.9377
2024-05-09T08:12:36.099Z,15.9494
2024-05-09T08:13:38.725Z,15.9379
2024-05-09T08:14:41.213Z,15.9466
2024-05-09T08:15:43.896Z,16.0622
2024-05-09T08:16:46.390Z,16.0869
2024-05-09T08:17:49.063Z,16.1559
2024-05-09T08:18:51.671Z,16.1066
2024-05-09T08:19:54.136Z,16.2730
2024-05-09T08:20:56.719Z,16.1602
2024-05-09T08:21:59.341Z,16.1563
2024-05-09T08:23:01.887Z,16.1526
2024-05-09T08:24:04.485Z,16.2000
2024-05-09T08:25:07.076Z,16.2000
2024-05-09T08:26:09.639Z,16.2011
2024-05-09T08:27:12.242Z,16.2237
2024-05-09T08:28:14.852Z,16.2409
2024-05-09T08:29:17.407Z,16.2356
2024-05-09T08:30:25.304Z,16.2781
2024-05-09T08:31:22.792Z,16.2801
2024-05-09T08:32:25.185Z,16.2686
2024-05-09T08:33:27.835Z,16.3015
2024-05-09T08:34:30.358Z,16.3147
2024-05-09T08:35:32.934Z,16.3048
2024-05-09T08:36:35.513Z,16.3251
2024-05-09T08:37:40.483Z,16.3276
2024-05-09T08:38:40.656Z,16.3255
2024-05-09T08:39:43.258Z,16.3545
2024-05-09T08:40:45.898Z,16.3048
2024-05-09T08:41:48.398Z,16.2840
2024-05-09T08:42:51.003Z,16.2906
2024-05-09T08:43:53.562Z,16.2565
2024-05-09T08:44:56.133Z,16.2473
2024-05-09T08:45:58.766Z,16.2465
2024-05-09T08:47:01.385Z,16.2366
2024-05-09T08:48:04.070Z,16.2304
2024-05-09T08:49:06.642Z,16.2089
2024-05-09T08:50:13.783Z,16.2208
2024-05-09T08:51:11.641Z,16.2142
2024-05-09T08:52:14.229Z,16.2087
2024-05-09T08:53:16.822Z,16.1904
2024-05-09T08:54:19.395Z,16.1881
2024-05-09T08:55:21.994Z,16.1840
2024-05-09T08:56:24.600Z,16.1826
2024-05-09T08:57:27.228Z,16.1729
2024-05-09T08:58:29.721Z,16.1752
2024-05-09T08:59:32.340Z,16.1945
2024-05-09T09:00:37.310Z,16.1742
2024-05-09T09:01:38.136Z,16.1733
2024-05-09T09:02:40.250Z,16.1721
2024-05-09T09:03:42.848Z,16.1670
2024-05-09T09:04:45.295Z,16.1551
2024-05-09T09:05:47.839Z,16.1678
2024-05-09T09:06:51.453Z,16.1472
2024-05-09T09:07:52.975Z,16.1637
2024-05-09T09:08:55.550Z,16.1668
2024-05-09T09:09:58.154Z,16.1571
2024-05-09T09:11:00.761Z,16.1573
2024-05-09T09:12:03.327Z,16.1637
2024-05-09T09:13:05.932Z,16.1571
2024-05-09T09:14:08.484Z,16.1499
2024-05-09T09:15:11.076Z,16.1532
2024-05-09T09:16:13.750Z,16.1464
2024-05-09T09:17:16.338Z,16.1575
2024-05-09T09:18:19.292Z,16.1499
2024-05-09T09:19:21.581Z,16.1359
2024-05-09T09:20:29.402Z,16.1551
2024-05-09T09:21:26.773Z,16.1462
2024-05-09T09:22:29.164Z,16.1475
2024-05-09T09:23:31.880Z,16.1378
2024-05-09T09:24:34.373Z,16.1290
2024-05-09T09:25:36.920Z,16.1378
2024-05-09T09:26:39.503Z,16.1495
2024-05-09T09:27:42.167Z,16.1409
2024-05-09T09:28:44.669Z,16.1384
2024-05-09T09:29:47.293Z,16.1407
2024-05-09T09:30:49.905Z,16.1355
2024-05-09T09:31:52.445Z,16.1275
2024-05-09T09:32:55.123Z,16.1456
2024-05-09T09:33:57.936Z,16.1320
2024-05-09T09:35:00.237Z,16.1263
2024-05-09T09:36:02.753Z,16.1339
2024-05-09T09:37:05.404Z,16.1394
2024-05-09T09:38:07.992Z,16.1366
2024-05-09T09:39:10.560Z,16.1345
2024-05-09T09:40:13.468Z,16.1273
2024-05-09T09:41:15.758Z,16.1308
2024-05-09T09:42:18.265Z,16.1329
2024-05-09T09:43:21.177Z,16.1296
2024-05-09T09:44:23.412Z,16.1345
2024-05-09T09:45:26.053Z,16.1376
2024-05-09T09:46:28.740Z,16.1288
2024-05-09T09:47:31.300Z,16.1444
2024-05-09T09:48:34.080Z,16.1300
2024-05-09T09:49:36.411Z,16.1298
2024-05-09T09:50:38.965Z,16.1300
2024-05-09T09:51:41.608Z,16.1466
2024-05-09T09:52:44.123Z,16.1343
2024-05-09T09:53:46.748Z,16.1325
2024-05-09T09:54:49.381Z,16.1253
2024-05-09T09:55:51.897Z,16.1331
2024-05-09T09:56:54.453Z,16.1353
2024-05-09T09:57:57.112Z,16.1384
2024-05-09T09:58:59.621Z,16.1407
2024-05-09T10:00:03.119Z,16.1507
2024-05-09T10:01:04.986Z,16.1362
2024-05-09T10:02:07.600Z,16.1384
2024-05-09T10:03:10.133Z,16.1234
2024-05-09T10:04:12.692Z,16.1322
2024-05-09T10:05:15.160Z,16.1222
2024-05-09T10:06:17.681Z,16.1497
2024-05-09T10:07:20.354Z,16.1368
2024-05-09T10:08:22.858Z,16.1485
2024-05-09T10:09:25.473Z,16.1452
2024-05-09T10:10:32.317Z,16.1553
2024-05-09T10:11:31.679Z,16.1431
2024-05-09T10:12:33.267Z,16.1226
2024-05-09T10:13:35.863Z,16.1275
2024-05-09T10:14:38.342Z,16.1290
2024-05-09T10:15:40.966Z,16.1343
2024-05-09T10:16:43.528Z,16.1294
2024-05-09T10:17:46.150Z,16.1298
2024-05-09T10:18:48.861Z,16.1316
2024-05-09T10:19:51.389Z,16.1216
2024-05-09T10:20:53.826Z,16.1183
2024-05-09T10:21:56.427Z,16.1454
2024-05-09T10:22:59.055Z,16.1362
2024-05-09T10:24:01.583Z,16.1234
2024-05-09T10:25:05.108Z,16.1247
2024-05-09T10:26:06.748Z,16.1312
2024-05-09T10:27:09.400Z,16.1351
2024-05-09T10:28:12.081Z,16.1364
2024-05-09T10:29:14.517Z,16.1310
2024-05-09T10:30:25.816Z,16.1310
2024-05-09T10:31:19.683Z,16.1107
2024-05-09T10:32:22.363Z,16.1298
2024-05-09T10:33:24.987Z,16.1183
2024-05-09T10:34:27.632Z,16.1168
2024-05-09T10:35:30.023Z,16.1160
2024-05-09T10:36:32.644Z,16.1431
2024-05-09T10:37:35.236Z,16.1242
2024-05-09T10:38:37.748Z,16.1331
2024-05-09T10:39:40.359Z,16.1359
2024-05-09T10:40:42.964Z,16.1275
2024-05-09T10:41:45.493Z,16.1333
2024-05-09T10:42:48.183Z,16.1345
2024-05-09T10:43:50.705Z,16.1429
2024-05-09T10:44:53.338Z,16.1331
2024-05-09T10:45:55.856Z,16.1429
2024-05-09T10:46:58.437Z,16.1308
2024-05-09T10:48:01.163Z,16.1364
2024-05-09T10:49:06.294Z,16.1442
2024-05-09T10:50:12.710Z,16.1493
2024-05-09T10:51:08.744Z,16.1343
2024-05-09T10:52:11.350Z,16.1376
2024-05-09T10:53:13.895Z,16.1355
2024-05-09T10:54:16.509Z,16.1407
2024-05-09T10:55:19.285Z,16.1497
2024-05-09T10:56:21.663Z,16.1670
2024-05-09T10:57:24.230Z,16.1540
2024-05-09T10:58:26.805Z,16.1565
2024-05-09T10:59:29.400Z,16.1553
2024-05-09T11:00:35.863Z,16.1503
2024-05-09T11:01:34.639Z,16.1444
2024-05-09T11:02:37.291Z,16.1553
2024-05-09T11:03:40.127Z,16.1444
2024-05-09T11:04:42.485Z,16.1440
2024-05-09T11:05:45.094Z,16.1399
2024-05-09T11:06:47.532Z,16.1386
2024-05-09T11:07:50.071Z,16.1444
2024-05-09T11:08:52.649Z,16.1320
2024-05-09T11:09:55.301Z,16.1339
2024-05-09T11:10:57.855Z,16.1487
2024-05-09T11:12:00.463Z,16.1587
2024-05-09T11:13:03.048Z,16.1470
2024-05-09T11:14:05.565Z,16.1567
2024-05-09T11:15:08.180Z,16.1540
2024-05-09T11:16:10.801Z,16.1394
2024-05-09T11:17:13.322Z,16.1553
2024-05-09T11:18:16.063Z,16.1511
2024-05-09T11:19:18.673Z,16.1678
2024-05-09T11:20:26.942Z,16.1394
2024-05-09T11:21:23.652Z,16.1454
2024-05-09T11:22:26.289Z,16.1454
2024-05-09T11:23:28.804Z,16.1563
2024-05-09T11:24:31.407Z,16.1493
2024-05-09T11:25:33.975Z,16.1592
2024-05-09T11:26:36.612Z,16.1627
2024-05-09T11:27:39.184Z,16.1742
2024-05-09T11:28:41.734Z,16.1752
2024-05-09T11:29:44.315Z,16.1709
2024-05-09T11:30:46.983Z,16.1596
2024-05-09T11:31:49.668Z,16.1861
2024-05-09T11:32:52.298Z,16.1762
2024-05-09T11:33:54.846Z,16.1758
2024-05-09T11:34:57.244Z,16.1721
2024-05-09T11:35:59.823Z,16.1852
2024-05-09T11:37:02.494Z,16.1869
2024-05-09T11:38:04.995Z,16.1850
2024-05-09T11:39:07.593Z,16.1857
2024-05-09T11:40:16.814Z,16.1933
2024-05-09T11:41:12.774Z,16.1922
2024-05-09T11:42:15.326Z,16.1982
2024-05-09T11:43:18.053Z,16.2000
2024-05-09T11:44:20.523Z,16.1967
2024-05-09T11:45:23.148Z,16.2058
2024-05-09T11:46:25.819Z,16.2046
2024-05-09T11:47:28.289Z,16.2023
2024-05-09T11:48:31.148Z,16.1949
2024-05-09T11:49:33.563Z,16.1883
2024-05-09T11:50:36.444Z,16.1924
2024-05-09T11:51:38.637Z,16.1939
2024-05-09T11:52:41.164Z,16.1891
2024-05-09T11:53:43.762Z,16.1832
2024-05-09T11:54:46.381Z,16.1783
2024-05-09T11:55:48.946Z,16.1992
2024-05-09T11:56:51.604Z,16.1912
2024-05-09T11:57:54.097Z,16.1793
2024-05-09T11:58:56.664Z,16.1772
2024-05-09T11:59:59.249Z,16.1871
2024-05-09T12:01:01.979Z,16.1721
2024-05-09T12:02:04.589Z,16.1795
2024-05-09T12:03:07.099Z,16.1848
2024-05-09T12:04:09.699Z,16.1742
2024-05-09T12:05:12.246Z,16.1752
2024-05-09T12:06:14.769Z,16.1618
2024-05-09T12:07:17.439Z,16.1783
2024-05-09T12:08:19.934Z,16.1651
2024-05-09T12:09:22.494Z,16.1690
2024-05-09T12:10:32.125Z,16.1700
2024-05-09T12:11:27.703Z,16.1752
2024-05-09T12:12:30.302Z,16.1762
2024-05-09T12:13:32.957Z,16.1639
2024-05-09T12:14:35.447Z,16.1680
2024-05-09T12:15:38.879Z,16.1731
2024-05-09T12:16:40.653Z,16.1754
2024-05-09T12:17:43.288Z,16.1742
2024-05-09T12:18:45.904Z,16.1742
2024-05-09T12:19:48.419Z,16.1754
2024-05-09T12:20:50.949Z,16.1764
2024-05-09T12:21:53.553Z,16.1649
2024-05-09T12:22:56.099Z,16.1783
2024-05-09T12:23:58.679Z,16.1764
2024-05-09T12:25:01.316Z,16.1805
2024-05-09T12:26:03.868Z,16.1805
2024-05-09T12:27:06.457Z,16.1752
2024-05-09T12:28:09.198Z,16.1700
2024-05-09T12:29:11.622Z,16.1678
2024-05-09T12:30:20.729Z,16.1803
2024-05-09T12:31:16.807Z,16.1594
2024-05-09T12:32:19.420Z,16.1639
2024-05-09T12:33:22.144Z,16.1497
2024-05-09T12:34:24.574Z,16.1690
2024-05-09T12:35:27.152Z,16.1585
2024-05-09T12:36:29.702Z,16.1764
2024-05-09T12:37:32.313Z,16.1670
2024-05-09T12:38:34.915Z,16.1649
2024-05-09T12:39:37.538Z,16.1848